sensor_id;sensor_type;location;lat;lon;timestamp;P1;durP1;ratioP1;P2;durP2;ratioP2
17959;SDS011;9105;53.552;9.980;2023-09-12T00:00:04;57.15;;;44.05;;
17959;SDS011;9105;53.552;9.980;2023-09-12T00:02:30;60.63;;;42.80;;
17959;SDS011;9105;53.552;9.980;2023-09-12T00:04:56;59.00;;;45.00;;
17959;SDS011;9105;53.552;9.980;2023-09-12T00:07:21;57.55;;;44.10;;
17959;SDS011;9105;53.552;9.980;2023-09-12T00:09:47;61.13;;;44.45;;
17959;SDS011;9105;53.552;9.980;2023-09-12T00:12:16;62.50;;;45.70;;
17959;SDS011;9105;53.552;9.980;2023-09-12T00:14:41;65.63;;;47.28;;
17959;SDS011;9105;53.552;9.980;2023-09-12T00:17:07;67.30;;;48.15;;
17959;SDS011;9105;53.552;9.980;2023-09-12T00:19:32;70.40;;;50.63;;
17959;SDS011;9105;53.552;9.980;2023-09-12T00:21:58;76.43;;;53.00;;
17959;SDS011;9105;53.552;9.980;2023-09-12T00:24:23;68.53;;;52.30;;
17959;SDS011;9105;53.552;9.980;2023-09-12T00:26:48;79.13;;;55.70;;
17959;SDS011;9105;53.552;9.980;2023-09-12T00:29:14;76.30;;;55.70;;
17959;SDS011;9105;53.552;9.980;2023-09-12T00:31:39;75.95;;;54.30;;
17959;SDS011;9105;53.552;9.980;2023-09-12T00:34:07;82.05;;;56.30;;
17959;SDS011;9105;53.552;9.980;2023-09-12T00:36:33;93.30;;;56.23;;
17959;SDS011;9105;53.552;9.980;2023-09-12T00:38:58;89.10;;;56.80;;
17959;SDS011;9105;53.552;9.980;2023-09-12T00:41:24;86.38;;;56.38;;
17959;SDS011;9105;53.552;9.980;2023-09-12T00:43:49;88.78;;;55.63;;
17959;SDS011;9105;53.552;9.980;2023-09-12T00:46:17;85.43;;;54.45;;
17959;SDS011;9105;53.552;9.980;2023-09-12T00:51:09;83.63;;;52.88;;
17959;SDS011;9105;53.552;9.980;2023-09-12T00:53:35;78.35;;;50.95;;
17959;SDS011;9105;53.552;9.980;2023-09-12T00:56:00;70.68;;;48.35;;
17959;SDS011;9105;53.552;9.980;2023-09-12T00:58:26;76.40;;;51.42;;
17959;SDS011;9105;53.552;9.980;2023-09-12T01:00:53;71.68;;;49.22;;
17959;SDS011;9105;53.552;9.980;2023-09-12T01:03:18;73.68;;;49.05;;
17959;SDS011;9105;53.552;9.980;2023-09-12T01:05:44;72.13;;;48.10;;
17959;SDS011;9105;53.552;9.980;2023-09-12T01:08:10;67.53;;;46.25;;
17959;SDS011;9105;53.552;9.980;2023-09-12T01:10:35;64.72;;;44.20;;
17959;SDS011;9105;53.552;9.980;2023-09-12T01:13:01;61.83;;;43.85;;
17959;SDS011;9105;53.552;9.980;2023-09-12T01:15:26;62.95;;;43.55;;
17959;SDS011;9105;53.552;9.980;2023-09-12T01:17:52;67.38;;;43.08;;
17959;SDS011;9105;53.552;9.980;2023-09-12T01:20:24;67.00;;;44.20;;
17959;SDS011;9105;53.552;9.980;2023-09-12T01:28:37;58.03;;;39.92;;
17959;SDS011;9105;53.552;9.980;2023-09-12T01:31:03;48.45;;;37.45;;
17959;SDS011;9105;53.552;9.980;2023-09-12T01:33:29;53.22;;;38.20;;
17959;SDS011;9105;53.552;9.980;2023-09-12T01:35:54;59.25;;;40.08;;
17959;SDS011;9105;53.552;9.980;2023-09-12T01:38:21;57.55;;;39.97;;
17959;SDS011;9105;53.552;9.980;2023-09-12T01:40:48;52.88;;;37.75;;
17959;SDS011;9105;53.552;9.980;2023-09-12T01:43:18;53.35;;;37.17;;
17959;SDS011;9105;53.552;9.980;2023-09-12T01:45:45;45.95;;;34.67;;
17959;SDS011;9105;53.552;9.980;2023-09-12T01:48:11;53.58;;;38.13;;
17959;SDS011;9105;53.552;9.980;2023-09-12T01:50:36;51.50;;;37.85;;
17959;SDS011;9105;53.552;9.980;2023-09-12T01:53:02;56.53;;;38.78;;
17959;SDS011;9105;53.552;9.980;2023-09-12T01:55:28;59.47;;;37.45;;
17959;SDS011;9105;53.552;9.980;2023-09-12T01:57:54;51.45;;;36.60;;
17959;SDS011;9105;53.552;9.980;2023-09-12T02:00:22;37.63;;;26.90;;
17959;SDS011;9105;53.552;9.980;2023-09-12T02:02:48;57.30;;;40.65;;
17959;SDS011;9105;53.552;9.980;2023-09-12T02:05:15;62.42;;;43.28;;
17959;SDS011;9105;53.552;9.980;2023-09-12T02:07:45;68.50;;;42.78;;
17959;SDS011;9105;53.552;9.980;2023-09-12T02:10:11;58.05;;;40.03;;
17959;SDS011;9105;53.552;9.980;2023-09-12T02:12:37;57.67;;;39.90;;
17959;SDS011;9105;53.552;9.980;2023-09-12T02:15:03;61.30;;;39.25;;
17959;SDS011;9105;53.552;9.980;2023-09-12T02:17:29;54.45;;;39.10;;
17959;SDS011;9105;53.552;9.980;2023-09-12T02:19:54;58.75;;;37.35;;
17959;SDS011;9105;53.552;9.980;2023-09-12T02:22:19;51.42;;;36.58;;
17959;SDS011;9105;53.552;9.980;2023-09-12T02:24:45;60.40;;;39.28;;
17959;SDS011;9105;53.552;9.980;2023-09-12T02:27:10;54.85;;;37.78;;
17959;SDS011;9105;53.552;9.980;2023-09-12T02:29:37;56.15;;;36.33;;
17959;SDS011;9105;53.552;9.980;2023-09-12T02:32:04;50.27;;;36.93;;
17959;SDS011;9105;53.552;9.980;2023-09-12T02:34:29;61.45;;;39.80;;
17959;SDS011;9105;53.552;9.980;2023-09-12T02:36:55;53.22;;;37.35;;
17959;SDS011;9105;53.552;9.980;2023-09-12T02:39:20;49.22;;;36.53;;
17959;SDS011;9105;53.552;9.980;2023-09-12T02:41:46;46.20;;;35.00;;
17959;SDS011;9105;53.552;9.980;2023-09-12T02:44:11;50.85;;;35.80;;
17959;SDS011;9105;53.552;9.980;2023-09-12T02:46:36;49.72;;;35.63;;
17959;SDS011;9105;53.552;9.980;2023-09-12T02:49:02;50.10;;;36.67;;
17959;SDS011;9105;53.552;9.980;2023-09-12T02:51:28;51.72;;;36.70;;
17959;SDS011;9105;53.552;9.980;2023-09-12T02:53:53;52.83;;;37.70;;
17959;SDS011;9105;53.552;9.980;2023-09-12T02:56:19;52.45;;;37.35;;
17959;SDS011;9105;53.552;9.980;2023-09-12T02:58:47;51.45;;;35.25;;
17959;SDS011;9105;53.552;9.980;2023-09-12T03:01:16;54.80;;;39.67;;
17959;SDS011;9105;53.552;9.980;2023-09-12T03:03:45;48.60;;;35.90;;
17959;SDS011;9105;53.552;9.980;2023-09-12T03:06:12;51.58;;;35.40;;
17959;SDS011;9105;53.552;9.980;2023-09-12T03:08:37;53.03;;;35.10;;
17959;SDS011;9105;53.552;9.980;2023-09-12T03:11:04;49.55;;;36.55;;
17959;SDS011;9105;53.552;9.980;2023-09-12T03:13:32;55.67;;;36.00;;
17959;SDS011;9105;53.552;9.980;2023-09-12T03:15:58;50.17;;;36.08;;
17959;SDS011;9105;53.552;9.980;2023-09-12T03:18:23;50.88;;;36.58;;
17959;SDS011;9105;53.552;9.980;2023-09-12T03:20:49;55.13;;;38.38;;
17959;SDS011;9105;53.552;9.980;2023-09-12T03:23:14;61.65;;;39.63;;
17959;SDS011;9105;53.552;9.980;2023-09-12T03:25:40;54.55;;;37.70;;
17959;SDS011;9105;53.552;9.980;2023-09-12T03:28:05;54.45;;;37.03;;
17959;SDS011;9105;53.552;9.980;2023-09-12T03:30:35;52.85;;;37.28;;
17959;SDS011;9105;53.552;9.980;2023-09-12T03:33:02;57.05;;;38.63;;
17959;SDS011;9105;53.552;9.980;2023-09-12T03:35:33;60.67;;;40.28;;
17959;SDS011;9105;53.552;9.980;2023-09-12T03:38:00;65.53;;;41.78;;
17959;SDS011;9105;53.552;9.980;2023-09-12T03:40:27;68.38;;;42.85;;
17959;SDS011;9105;53.552;9.980;2023-09-12T03:42:54;65.47;;;41.90;;
17959;SDS011;9105;53.552;9.980;2023-09-12T03:45:20;58.10;;;38.95;;
17959;SDS011;9105;53.552;9.980;2023-09-12T03:47:46;78.45;;;48.20;;
17959;SDS011;9105;53.552;9.980;2023-09-12T03:50:12;77.10;;;46.83;;
17959;SDS011;9105;53.552;9.980;2023-09-12T03:52:39;66.97;;;42.92;;
17959;SDS011;9105;53.552;9.980;2023-09-12T03:55:04;85.30;;;48.65;;
17959;SDS011;9105;53.552;9.980;2023-09-12T03:57:30;67.13;;;44.50;;
17959;SDS011;9105;53.552;9.980;2023-09-12T03:59:55;89.57;;;49.78;;
17959;SDS011;9105;53.552;9.980;2023-09-12T04:02:21;79.38;;;48.58;;
17959;SDS011;9105;53.552;9.980;2023-09-12T04:04:46;77.10;;;46.30;;
17959;SDS011;9105;53.552;9.980;2023-09-12T04:07:12;76.43;;;46.20;;
17959;SDS011;9105;53.552;9.980;2023-09-12T04:09:38;86.03;;;49.20;;
17959;SDS011;9105;53.552;9.980;2023-09-12T04:12:03;77.57;;;48.33;;
17959;SDS011;9105;53.552;9.980;2023-09-12T04:14:29;78.32;;;47.55;;
17959;SDS011;9105;53.552;9.980;2023-09-12T04:16:54;98.28;;;52.00;;
17959;SDS011;9105;53.552;9.980;2023-09-12T04:19:20;100.50;;;55.65;;
17959;SDS011;9105;53.552;9.980;2023-09-12T04:21:45;129.38;;;61.83;;
17959;SDS011;9105;53.552;9.980;2023-09-12T04:24:10;152.05;;;70.53;;
17959;SDS011;9105;53.552;9.980;2023-09-12T04:26:36;170.98;;;72.40;;
17959;SDS011;9105;53.552;9.980;2023-09-12T04:29:01;127.40;;;62.22;;
17959;SDS011;9105;53.552;9.980;2023-09-12T04:31:27;123.80;;;60.13;;
17959;SDS011;9105;53.552;9.980;2023-09-12T04:33:52;114.15;;;58.38;;
17959;SDS011;9105;53.552;9.980;2023-09-12T04:36:18;123.00;;;59.15;;
17959;SDS011;9105;53.552;9.980;2023-09-12T04:38:44;133.98;;;62.53;;
17959;SDS011;9105;53.552;9.980;2023-09-12T04:41:11;127.85;;;62.17;;
17959;SDS011;9105;53.552;9.980;2023-09-12T04:43:40;109.85;;;58.80;;
17959;SDS011;9105;53.552;9.980;2023-09-12T04:46:05;126.95;;;60.88;;
17959;SDS011;9105;53.552;9.980;2023-09-12T04:48:31;138.68;;;63.17;;
17959;SDS011;9105;53.552;9.980;2023-09-12T04:50:56;145.00;;;64.10;;
17959;SDS011;9105;53.552;9.980;2023-09-12T04:53:22;153.18;;;67.63;;
17959;SDS011;9105;53.552;9.980;2023-09-12T04:55:47;149.00;;;68.43;;
17959;SDS011;9105;53.552;9.980;2023-09-12T04:58:13;118.95;;;62.50;;
17959;SDS011;9105;53.552;9.980;2023-09-12T05:00:39;133.70;;;66.63;;
17959;SDS011;9105;53.552;9.980;2023-09-12T05:03:04;139.27;;;64.50;;
17959;SDS011;9105;53.552;9.980;2023-09-12T05:05:30;137.52;;;64.50;;
17959;SDS011;9105;53.552;9.980;2023-09-12T05:07:55;164.13;;;70.53;;
17959;SDS011;9105;53.552;9.980;2023-09-12T05:10:21;131.80;;;65.18;;
17959;SDS011;9105;53.552;9.980;2023-09-12T05:12:46;151.05;;;70.47;;
17959;SDS011;9105;53.552;9.980;2023-09-12T05:15:12;140.77;;;64.60;;
17959;SDS011;9105;53.552;9.980;2023-09-12T05:17:37;118.15;;;60.97;;
17959;SDS011;9105;53.552;9.980;2023-09-12T05:20:03;105.97;;;57.80;;
17959;SDS011;9105;53.552;9.980;2023-09-12T05:24:57;141.43;;;66.95;;
17959;SDS011;9105;53.552;9.980;2023-09-12T05:27:22;164.10;;;73.47;;
17959;SDS011;9105;53.552;9.980;2023-09-12T05:29:47;188.23;;;80.00;;
17959;SDS011;9105;53.552;9.980;2023-09-12T05:32:13;98.07;;;55.75;;
17959;SDS011;9105;53.552;9.980;2023-09-12T05:34:40;112.85;;;60.83;;
17959;SDS011;9105;53.552;9.980;2023-09-12T05:37:06;165.73;;;75.95;;
17959;SDS011;9105;53.552;9.980;2023-09-12T05:39:31;127.78;;;63.42;;
17959;SDS011;9105;53.552;9.980;2023-09-12T05:41:57;143.48;;;70.35;;
17959;SDS011;9105;53.552;9.980;2023-09-12T05:44:22;232.32;;;87.40;;
17959;SDS011;9105;53.552;9.980;2023-09-12T05:46:48;167.27;;;74.20;;
17959;SDS011;9105;53.552;9.980;2023-09-12T05:49:14;189.50;;;80.13;;
17959;SDS011;9105;53.552;9.980;2023-09-12T05:51:40;121.30;;;64.53;;
17959;SDS011;9105;53.552;9.980;2023-09-12T05:54:05;169.85;;;70.80;;
17959;SDS011;9105;53.552;9.980;2023-09-12T05:56:31;171.27;;;70.78;;
17959;SDS011;9105;53.552;9.980;2023-09-12T05:58:57;174.27;;;72.10;;
17959;SDS011;9105;53.552;9.980;2023-09-12T06:01:22;145.00;;;64.68;;
17959;SDS011;9105;53.552;9.980;2023-09-12T06:03:48;224.98;;;84.72;;
17959;SDS011;9105;53.552;9.980;2023-09-12T06:06:14;227.15;;;84.68;;
17959;SDS011;9105;53.552;9.980;2023-09-12T06:08:39;234.48;;;86.90;;
17959;SDS011;9105;53.552;9.980;2023-09-12T06:11:04;167.32;;;74.43;;
17959;SDS011;9105;53.552;9.980;2023-09-12T06:13:30;178.43;;;74.45;;
17959;SDS011;9105;53.552;9.980;2023-09-12T06:15:57;171.75;;;75.55;;
17959;SDS011;9105;53.552;9.980;2023-09-12T06:18:23;168.57;;;75.35;;
17959;SDS011;9105;53.552;9.980;2023-09-12T06:20:49;162.95;;;70.70;;
17959;SDS011;9105;53.552;9.980;2023-09-12T06:23:14;166.98;;;74.97;;
17959;SDS011;9105;53.552;9.980;2023-09-12T06:25:40;145.60;;;69.75;;
17959;SDS011;9105;53.552;9.980;2023-09-12T06:28:08;167.48;;;73.70;;
17959;SDS011;9105;53.552;9.980;2023-09-12T06:30:34;132.13;;;64.85;;
17959;SDS011;9105;53.552;9.980;2023-09-12T06:32:59;156.73;;;69.78;;
17959;SDS011;9105;53.552;9.980;2023-09-12T06:35:25;188.88;;;76.88;;
17959;SDS011;9105;53.552;9.980;2023-09-12T06:37:50;209.40;;;81.07;;
17959;SDS011;9105;53.552;9.980;2023-09-12T06:40:15;208.07;;;81.68;;
17959;SDS011;9105;53.552;9.980;2023-09-12T06:42:41;158.52;;;72.10;;
17959;SDS011;9105;53.552;9.980;2023-09-12T06:45:07;107.63;;;60.90;;
17959;SDS011;9105;53.552;9.980;2023-09-12T06:47:32;117.57;;;61.13;;
17959;SDS011;9105;53.552;9.980;2023-09-12T06:49:58;165.18;;;73.47;;
17959;SDS011;9105;53.552;9.980;2023-09-12T06:52:23;96.43;;;54.70;;
17959;SDS011;9105;53.552;9.980;2023-09-12T06:54:48;79.03;;;49.53;;
17959;SDS011;9105;53.552;9.980;2023-09-12T06:57:14;139.43;;;65.65;;
17959;SDS011;9105;53.552;9.980;2023-09-12T06:59:39;89.55;;;54.60;;
17959;SDS011;9105;53.552;9.980;2023-09-12T07:02:05;97.50;;;56.25;;
17959;SDS011;9105;53.552;9.980;2023-09-12T07:04:30;92.05;;;53.60;;
17959;SDS011;9105;53.552;9.980;2023-09-12T07:06:56;95.57;;;55.38;;
17959;SDS011;9105;53.552;9.980;2023-09-12T07:09:21;73.20;;;47.63;;
17959;SDS011;9105;53.552;9.980;2023-09-12T07:11:47;121.93;;;64.55;;
17959;SDS011;9105;53.552;9.980;2023-09-12T07:14:13;108.32;;;58.60;;
17959;SDS011;9105;53.552;9.980;2023-09-12T07:16:39;68.20;;;45.80;;
17959;SDS011;9105;53.552;9.980;2023-09-12T07:19:04;117.25;;;60.20;;
17959;SDS011;9105;53.552;9.980;2023-09-12T07:21:30;79.18;;;48.60;;
17959;SDS011;9105;53.552;9.980;2023-09-12T07:23:56;76.70;;;49.15;;
17959;SDS011;9105;53.552;9.980;2023-09-12T07:26:22;77.07;;;47.78;;
17959;SDS011;9105;53.552;9.980;2023-09-12T07:28:48;71.28;;;46.40;;
17959;SDS011;9105;53.552;9.980;2023-09-12T07:31:13;70.60;;;47.53;;
17959;SDS011;9105;53.552;9.980;2023-09-12T07:33:39;75.65;;;49.35;;
17959;SDS011;9105;53.552;9.980;2023-09-12T07:36:06;66.70;;;46.05;;
17959;SDS011;9105;53.552;9.980;2023-09-12T07:38:32;64.63;;;43.22;;
17959;SDS011;9105;53.552;9.980;2023-09-12T07:41:00;60.42;;;42.05;;
17959;SDS011;9105;53.552;9.980;2023-09-12T07:43:25;60.55;;;41.70;;
17959;SDS011;9105;53.552;9.980;2023-09-12T07:45:54;57.22;;;40.92;;
17959;SDS011;9105;53.552;9.980;2023-09-12T07:48:21;65.85;;;46.00;;
17959;SDS011;9105;53.552;9.980;2023-09-12T07:50:46;64.38;;;43.42;;
17959;SDS011;9105;53.552;9.980;2023-09-12T07:53:12;55.70;;;40.42;;
17959;SDS011;9105;53.552;9.980;2023-09-12T07:55:37;52.05;;;36.75;;
17959;SDS011;9105;53.552;9.980;2023-09-12T07:58:11;51.50;;;38.30;;
17959;SDS011;9105;53.552;9.980;2023-09-12T08:00:46;51.95;;;36.42;;
17959;SDS011;9105;53.552;9.980;2023-09-12T08:03:12;52.25;;;37.63;;
17959;SDS011;9105;53.552;9.980;2023-09-12T08:05:37;44.75;;;34.03;;
17959;SDS011;9105;53.552;9.980;2023-09-12T08:08:03;44.42;;;34.47;;
17959;SDS011;9105;53.552;9.980;2023-09-12T08:10:29;47.75;;;36.60;;
17959;SDS011;9105;53.552;9.980;2023-09-12T08:12:54;43.00;;;34.10;;
17959;SDS011;9105;53.552;9.980;2023-09-12T08:15:19;42.08;;;33.08;;
17959;SDS011;9105;53.552;9.980;2023-09-12T08:17:45;44.47;;;33.67;;
17959;SDS011;9105;53.552;9.980;2023-09-12T08:20:11;38.67;;;32.20;;
17959;SDS011;9105;53.552;9.980;2023-09-12T08:22:37;40.00;;;31.27;;
17959;SDS011;9105;53.552;9.980;2023-09-12T08:25:02;40.72;;;31.63;;
17959;SDS011;9105;53.552;9.980;2023-09-12T08:27:28;40.92;;;31.67;;
17959;SDS011;9105;53.552;9.980;2023-09-12T08:29:53;38.00;;;30.05;;
17959;SDS011;9105;53.552;9.980;2023-09-12T08:32:19;37.63;;;28.85;;
17959;SDS011;9105;53.552;9.980;2023-09-12T08:34:45;37.00;;;29.27;;
17959;SDS011;9105;53.552;9.980;2023-09-12T08:37:10;40.00;;;30.27;;
17959;SDS011;9105;53.552;9.980;2023-09-12T08:39:42;45.70;;;33.55;;
17959;SDS011;9105;53.552;9.980;2023-09-12T08:42:13;43.88;;;32.28;;
17959;SDS011;9105;53.552;9.980;2023-09-12T08:44:42;39.83;;;32.67;;
17959;SDS011;9105;53.552;9.980;2023-09-12T08:47:08;41.15;;;31.55;;
17959;SDS011;9105;53.552;9.980;2023-09-12T08:49:35;39.83;;;32.92;;
17959;SDS011;9105;53.552;9.980;2023-09-12T08:52:02;41.67;;;30.20;;
17959;SDS011;9105;53.552;9.980;2023-09-12T08:54:29;40.17;;;31.92;;
17959;SDS011;9105;53.552;9.980;2023-09-12T08:56:54;41.70;;;32.58;;
17959;SDS011;9105;53.552;9.980;2023-09-12T08:59:20;44.45;;;34.90;;
17959;SDS011;9105;53.552;9.980;2023-09-12T09:01:46;44.92;;;35.28;;
17959;SDS011;9105;53.552;9.980;2023-09-12T09:04:11;42.95;;;34.55;;
17959;SDS011;9105;53.552;9.980;2023-09-12T09:06:37;41.33;;;32.75;;
17959;SDS011;9105;53.552;9.980;2023-09-12T09:09:07;42.15;;;34.10;;
17959;SDS011;9105;53.552;9.980;2023-09-12T09:11:34;40.83;;;33.50;;
17959;SDS011;9105;53.552;9.980;2023-09-12T09:14:00;37.95;;;30.50;;
17959;SDS011;9105;53.552;9.980;2023-09-12T09:16:27;39.60;;;32.72;;
17959;SDS011;9105;53.552;9.980;2023-09-12T09:18:54;41.78;;;33.25;;
17959;SDS011;9105;53.552;9.980;2023-09-12T09:21:21;42.60;;;34.70;;
17959;SDS011;9105;53.552;9.980;2023-09-12T09:23:49;39.85;;;31.33;;
17959;SDS011;9105;53.552;9.980;2023-09-12T09:26:16;40.30;;;33.63;;
17959;SDS011;9105;53.552;9.980;2023-09-12T09:28:41;41.60;;;34.65;;
17959;SDS011;9105;53.552;9.980;2023-09-12T09:31:13;39.70;;;31.90;;
17959;SDS011;9105;53.552;9.980;2023-09-12T09:33:42;41.50;;;32.47;;
17959;SDS011;9105;53.552;9.980;2023-09-12T09:36:13;37.13;;;31.40;;
17959;SDS011;9105;53.552;9.980;2023-09-12T09:38:39;37.53;;;30.45;;
17959;SDS011;9105;53.552;9.980;2023-09-12T09:41:08;42.33;;;31.42;;
17959;SDS011;9105;53.552;9.980;2023-09-12T09:43:34;39.00;;;31.13;;
17959;SDS011;9105;53.552;9.980;2023-09-12T09:45:59;36.65;;;28.73;;
17959;SDS011;9105;53.552;9.980;2023-09-12T09:48:25;33.65;;;27.23;;
17959;SDS011;9105;53.552;9.980;2023-09-12T09:50:52;35.53;;;29.63;;
17959;SDS011;9105;53.552;9.980;2023-09-12T09:53:21;35.30;;;30.45;;
17959;SDS011;9105;53.552;9.980;2023-09-12T09:56:13;30.27;;;26.73;;
17959;SDS011;9105;53.552;9.980;2023-09-12T09:58:51;28.35;;;24.10;;
17959;SDS011;9105;53.552;9.980;2023-09-12T10:01:26;28.60;;;23.90;;
17959;SDS011;9105;53.552;9.980;2023-09-12T10:03:53;28.73;;;23.15;;
17959;SDS011;9105;53.552;9.980;2023-09-12T10:06:22;30.95;;;24.08;;
17959;SDS011;9105;53.552;9.980;2023-09-12T10:08:50;29.75;;;22.92;;
17959;SDS011;9105;53.552;9.980;2023-09-12T10:11:16;27.15;;;23.25;;
17959;SDS011;9105;53.552;9.980;2023-09-12T10:13:46;26.90;;;22.98;;
17959;SDS011;9105;53.552;9.980;2023-09-12T10:16:15;26.45;;;22.77;;
17959;SDS011;9105;53.552;9.980;2023-09-12T10:18:44;29.90;;;23.23;;
17959;SDS011;9105;53.552;9.980;2023-09-12T10:21:15;30.95;;;24.08;;
17959;SDS011;9105;53.552;9.980;2023-09-12T10:23:45;27.85;;;23.50;;
17959;SDS011;9105;53.552;9.980;2023-09-12T10:26:12;28.85;;;22.30;;
17959;SDS011;9105;53.552;9.980;2023-09-12T10:28:41;23.50;;;20.58;;
17959;SDS011;9105;53.552;9.980;2023-09-12T10:31:08;23.33;;;19.63;;
17959;SDS011;9105;53.552;9.980;2023-09-12T10:33:34;25.25;;;18.67;;
17959;SDS011;9105;53.552;9.980;2023-09-12T10:36:01;24.65;;;20.15;;
17959;SDS011;9105;53.552;9.980;2023-09-12T10:38:29;22.65;;;19.08;;
17959;SDS011;9105;53.552;9.980;2023-09-12T10:40:55;20.88;;;18.42;;
17959;SDS011;9105;53.552;9.980;2023-09-12T10:43:21;22.50;;;18.60;;
17959;SDS011;9105;53.552;9.980;2023-09-12T10:45:48;21.52;;;19.33;;
17959;SDS011;9105;53.552;9.980;2023-09-12T10:48:14;25.25;;;20.25;;
17959;SDS011;9105;53.552;9.980;2023-09-12T10:50:40;23.65;;;19.80;;
17959;SDS011;9105;53.552;9.980;2023-09-12T10:53:10;22.83;;;19.92;;
17959;SDS011;9105;53.552;9.980;2023-09-12T10:55:39;24.02;;;20.05;;
17959;SDS011;9105;53.552;9.980;2023-09-12T10:58:07;22.60;;;20.13;;
17959;SDS011;9105;53.552;9.980;2023-09-12T11:00:33;21.63;;;19.02;;
17959;SDS011;9105;53.552;9.980;2023-09-12T11:03:44;25.90;;;22.52;;
17959;SDS011;9105;53.552;9.980;2023-09-12T11:06:00;28.70;;;23.40;;
17959;SDS011;9105;53.552;9.980;2023-09-12T11:08:26;28.08;;;22.52;;
17959;SDS011;9105;53.552;9.980;2023-09-12T11:13:45;25.30;;;21.58;;
17959;SDS011;9105;53.552;9.980;2023-09-12T11:16:12;26.35;;;22.02;;
17959;SDS011;9105;53.552;9.980;2023-09-12T11:21:45;26.20;;;21.33;;
17959;SDS011;9105;53.552;9.980;2023-09-12T11:24:12;25.30;;;21.35;;
17959;SDS011;9105;53.552;9.980;2023-09-12T11:26:56;29.33;;;23.27;;
17959;SDS011;9105;53.552;9.980;2023-09-12T11:29:27;29.40;;;21.67;;
17959;SDS011;9105;53.552;9.980;2023-09-12T11:32:00;27.63;;;21.58;;
17959;SDS011;9105;53.552;9.980;2023-09-12T11:34:28;26.38;;;22.27;;
17959;SDS011;9105;53.552;9.980;2023-09-12T11:36:57;24.27;;;21.70;;
17959;SDS011;9105;53.552;9.980;2023-09-12T11:39:25;27.38;;;24.00;;
17959;SDS011;9105;53.552;9.980;2023-09-12T11:41:58;25.98;;;23.17;;
17959;SDS011;9105;53.552;9.980;2023-09-12T11:44:24;31.33;;;26.80;;
17959;SDS011;9105;53.552;9.980;2023-09-12T11:46:51;31.40;;;26.98;;
17959;SDS011;9105;53.552;9.980;2023-09-12T11:49:17;28.27;;;25.20;;
17959;SDS011;9105;53.552;9.980;2023-09-12T11:52:01;33.00;;;27.40;;
17959;SDS011;9105;53.552;9.980;2023-09-12T11:54:28;30.23;;;26.75;;
17959;SDS011;9105;53.552;9.980;2023-09-12T11:56:54;29.45;;;25.98;;
17959;SDS011;9105;53.552;9.980;2023-09-12T11:59:25;30.75;;;27.27;;
17959;SDS011;9105;53.552;9.980;2023-09-12T12:01:51;33.13;;;27.58;;
17959;SDS011;9105;53.552;9.980;2023-09-12T12:04:19;33.03;;;26.70;;
17959;SDS011;9105;53.552;9.980;2023-09-12T12:06:46;29.95;;;26.65;;
17959;SDS011;9105;53.552;9.980;2023-09-12T12:09:11;31.92;;;28.45;;
17959;SDS011;9105;53.552;9.980;2023-09-12T12:11:36;31.90;;;27.55;;
17959;SDS011;9105;53.552;9.980;2023-09-12T12:14:11;31.20;;;26.23;;
17959;SDS011;9105;53.552;9.980;2023-09-12T12:16:37;33.55;;;28.30;;
17959;SDS011;9105;53.552;9.980;2023-09-12T12:19:02;35.03;;;29.45;;
17959;SDS011;9105;53.552;9.980;2023-09-12T12:21:28;34.28;;;29.60;;
17959;SDS011;9105;53.552;9.980;2023-09-12T12:23:57;31.75;;;28.25;;
17959;SDS011;9105;53.552;9.980;2023-09-12T12:26:24;34.92;;;30.17;;
17959;SDS011;9105;53.552;9.980;2023-09-12T12:28:50;34.13;;;28.20;;
17959;SDS011;9105;53.552;9.980;2023-09-12T12:31:15;30.80;;;27.27;;
17959;SDS011;9105;53.552;9.980;2023-09-12T12:33:46;32.38;;;26.50;;
17959;SDS011;9105;53.552;9.980;2023-09-12T12:36:13;27.10;;;24.08;;
17959;SDS011;9105;53.552;9.980;2023-09-12T12:38:38;29.45;;;26.25;;
17959;SDS011;9105;53.552;9.980;2023-09-12T12:41:04;32.63;;;24.27;;
17959;SDS011;9105;53.552;9.980;2023-09-12T12:43:30;29.55;;;25.52;;
17959;SDS011;9105;53.552;9.980;2023-09-12T12:45:56;29.63;;;25.67;;
17959;SDS011;9105;53.552;9.980;2023-09-12T12:48:32;29.90;;;26.65;;
17959;SDS011;9105;53.552;9.980;2023-09-12T12:50:59;33.72;;;27.50;;
17959;SDS011;9105;53.552;9.980;2023-09-12T12:56:18;27.75;;;24.77;;
17959;SDS011;9105;53.552;9.980;2023-09-12T12:58:52;23.50;;;20.98;;
17959;SDS011;9105;53.552;9.980;2023-09-12T13:03:45;27.50;;;23.80;;
17959;SDS011;9105;53.552;9.980;2023-09-12T13:06:11;30.48;;;26.13;;
17959;SDS011;9105;53.552;9.980;2023-09-12T13:08:40;28.48;;;24.70;;
17959;SDS011;9105;53.552;9.980;2023-09-12T13:11:07;25.02;;;22.25;;
17959;SDS011;9105;53.552;9.980;2023-09-12T13:13:33;28.67;;;22.15;;
17959;SDS011;9105;53.552;9.980;2023-09-12T13:15:58;31.55;;;24.52;;
17959;SDS011;9105;53.552;9.980;2023-09-12T13:18:25;24.70;;;21.70;;
17959;SDS011;9105;53.552;9.980;2023-09-12T13:20:50;26.23;;;21.67;;
17959;SDS011;9105;53.552;9.980;2023-09-12T13:23:16;25.17;;;22.48;;
17959;SDS011;9105;53.552;9.980;2023-09-12T13:25:41;27.02;;;23.70;;
17959;SDS011;9105;53.552;9.980;2023-09-12T13:28:06;25.25;;;22.60;;
17959;SDS011;9105;53.552;9.980;2023-09-12T13:30:33;23.02;;;20.52;;
17959;SDS011;9105;53.552;9.980;2023-09-12T13:32:58;23.63;;;21.02;;
17959;SDS011;9105;53.552;9.980;2023-09-12T13:35:23;22.30;;;19.90;;
17959;SDS011;9105;53.552;9.980;2023-09-12T13:37:49;22.83;;;19.83;;
17959;SDS011;9105;53.552;9.980;2023-09-12T13:40:14;22.27;;;20.08;;
17959;SDS011;9105;53.552;9.980;2023-09-12T13:42:40;21.70;;;19.40;;
17959;SDS011;9105;53.552;9.980;2023-09-12T13:45:05;25.80;;;23.10;;
17959;SDS011;9105;53.552;9.980;2023-09-12T13:47:33;24.73;;;22.13;;
17959;SDS011;9105;53.552;9.980;2023-09-12T13:49:58;21.48;;;19.40;;
17959;SDS011;9105;53.552;9.980;2023-09-12T13:52:25;21.63;;;18.33;;
17959;SDS011;9105;53.552;9.980;2023-09-12T13:54:51;20.27;;;18.17;;
17959;SDS011;9105;53.552;9.980;2023-09-12T13:57:16;22.40;;;20.02;;
17959;SDS011;9105;53.552;9.980;2023-09-12T13:59:42;21.20;;;19.10;;
17959;SDS011;9105;53.552;9.980;2023-09-12T14:02:07;22.23;;;19.45;;
17959;SDS011;9105;53.552;9.980;2023-09-12T14:04:33;21.75;;;19.52;;
17959;SDS011;9105;53.552;9.980;2023-09-12T14:06:58;21.50;;;18.85;;
17959;SDS011;9105;53.552;9.980;2023-09-12T14:09:24;20.73;;;18.52;;
17959;SDS011;9105;53.552;9.980;2023-09-12T14:11:49;21.25;;;17.88;;
17959;SDS011;9105;53.552;9.980;2023-09-12T14:14:15;20.42;;;18.20;;
17959;SDS011;9105;53.552;9.980;2023-09-12T14:16:42;20.50;;;18.38;;
17959;SDS011;9105;53.552;9.980;2023-09-12T14:19:08;22.27;;;20.08;;
17959;SDS011;9105;53.552;9.980;2023-09-12T14:21:35;25.40;;;21.90;;
17959;SDS011;9105;53.552;9.980;2023-09-12T14:24:00;23.75;;;21.38;;
17959;SDS011;9105;53.552;9.980;2023-09-12T14:26:26;21.90;;;19.65;;
17959;SDS011;9105;53.552;9.980;2023-09-12T14:28:51;24.23;;;21.73;;
17959;SDS011;9105;53.552;9.980;2023-09-12T14:31:17;24.60;;;22.08;;
17959;SDS011;9105;53.552;9.980;2023-09-12T14:33:42;20.30;;;18.30;;
17959;SDS011;9105;53.552;9.980;2023-09-12T14:36:08;22.67;;;20.35;;
17959;SDS011;9105;53.552;9.980;2023-09-12T14:38:34;22.88;;;20.55;;
17959;SDS011;9105;53.552;9.980;2023-09-12T14:40:59;21.50;;;19.27;;
17959;SDS011;9105;53.552;9.980;2023-09-12T14:43:25;23.60;;;21.10;;
17959;SDS011;9105;53.552;9.980;2023-09-12T14:45:52;22.33;;;19.52;;
17959;SDS011;9105;53.552;9.980;2023-09-12T14:48:19;20.83;;;18.73;;
17959;SDS011;9105;53.552;9.980;2023-09-12T14:50:44;21.98;;;19.60;;